Time;durP1;ratioP1;P1;durP2;ratioP2;P2;SDS_P1;SDS_P2;PMS_P1;PMS_P2;Temp;Humidity;BMP_temperature;BMP_pressure;BME280_temperature;BME280_humidity;BME280_pressure;Samples;Min_cycle;Max_cycle;Signal;HPM_P1;HPM_P2
2021/09/14 00:00:57;;;;;;;1.77;1.15;;;;;;;;;;5013662;28;20115;-36
2021/09/14 00:03:22;;;;;;;2.67;1.40;;;;;;;;;;5010081;28;20030;-36
2021/09/14 00:05:48;;;;;;;1.50;0.90;;;;;;;;;;5009945;28;20056;-36
2021/09/14 00:08:13;;;;;;;2.70;0.98;;;;;;;;;;5017092;28;20124;-36
2021/09/14 00:10:38;;;;;;;1.38;0.98;;;;;;;;;;5018304;28;20025;-36
2021/09/14 00:13:04;;;;;;;1.85;0.98;;;;;;;;;;5021658;28;20041;-36
2021/09/14 00:15:29;;;;;;;2.45;1.27;;;;;;;;;;5019713;28;20401;-36
2021/09/14 00:17:54;;;;;;;1.60;0.98;;;;;;;;;;5022236;28;20025;-36
2021/09/14 00:20:20;;;;;;;1.92;1.15;;;;;;;;;;5014827;28;20496;-35
2021/09/14 00:22:45;;;;;;;2.30;1.05;;;;;;;;;;5018876;28;20022;-36
2021/09/14 00:25:11;;;;;;;2.95;1.50;;;;;;;;;;5015776;28;20404;-36
2021/09/14 00:27:38;;;;;;;1.35;0.90;;;;;;;;;;5014631;28;20504;-36
2021/09/14 00:30:04;;;;;;;4.80;0.70;;;;;;;;;;5016429;28;20557;-36
2021/09/14 00:32:29;;;;;;;2.97;1.40;;;;;;;;;;5018846;28;20116;-36
2021/09/14 00:34:54;;;;;;;2.13;1.27;;;;;;;;;;5015331;28;20060;-36
2021/09/14 00:37:19;;;;;;;4.30;1.23;;;;;;;;;;5016957;28;20056;-36
2021/09/14 00:39:45;;;;;;;2.83;1.42;;;;;;;;;;5013275;28;20444;-36
2021/09/14 00:42:10;;;;;;;1.77;0.80;;;;;;;;;;5014640;28;20117;-36
2021/09/14 00:44:36;;;;;;;9.63;1.10;;;;;;;;;;5014128;28;20087;-36
2021/09/14 00:47:01;;;;;;;1.58;1.30;;;;;;;;;;5016003;28;20033;-36
2021/09/14 00:49:26;;;;;;;10.88;1.60;;;;;;;;;;5017043;28;20026;-36
2021/09/14 00:51:52;;;;;;;2.35;1.83;;;;;;;;;;5020440;28;20104;-36
2021/09/14 00:54:17;;;;;;;4.35;1.52;;;;;;;;;;5015903;28;20048;-36
2021/09/14 00:56:43;;;;;;;6.00;2.08;;;;;;;;;;5017916;28;20037;-36
2021/09/14 00:59:11;;;;;;;3.78;1.70;;;;;;;;;;5016545;28;20022;-36
2021/09/14 01:01:37;;;;;;;5.82;1.10;;;;;;;;;;5014045;28;20036;-37
2021/09/14 01:04:03;;;;;;;2.30;1.63;;;;;;;;;;5002807;28;20029;-37
2021/09/14 01:06:28;;;;;;;1.77;0.77;;;;;;;;;;5007660;28;20493;-37
2021/09/14 01:08:54;;;;;;;3.95;0.93;;;;;;;;;;5010230;28;20080;-37
2021/09/14 01:11:20;;;;;;;3.45;1.23;;;;;;;;;;5013437;28;20041;-37
2021/09/14 01:13:45;;;;;;;3.55;1.33;;;;;;;;;;5017089;28;20128;-40
2021/09/14 01:16:13;;;;;;;3.58;1.27;;;;;;;;;;5017839;28;20453;-37
2021/09/14 01:18:39;;;;;;;9.00;2.05;;;;;;;;;;5015764;28;20026;-37
2021/09/14 01:21:04;;;;;;;1.90;1.02;;;;;;;;;;5014398;28;20515;-37
2021/09/14 01:23:30;;;;;;;2.35;1.48;;;;;;;;;;5016287;28;20026;-37
2021/09/14 01:25:55;;;;;;;2.17;1.17;;;;;;;;;;5020828;28;20040;-35
2021/09/14 01:28:21;;;;;;;4.93;1.48;;;;;;;;;;5017751;28;20393;-35
2021/09/14 01:30:47;;;;;;;1.83;1.20;;;;;;;;;;5009870;28;20113;-35
2021/09/14 01:33:12;;;;;;;1.92;1.00;;;;;;;;;;5013947;28;20021;-35
2021/09/14 01:35:38;;;;;;;2.33;1.27;;;;;;;;;;5013701;28;20033;-35
2021/09/14 01:38:03;;;;;;;17.50;2.03;;;;;;;;;;5012692;28;20029;-35
2021/09/14 01:40:28;;;;;;;2.03;1.40;;;;;;;;;;5013940;28;20431;-35
2021/09/14 01:42:54;;;;;;;1.27;0.82;;;;;;;;;;5012624;28;20594;-35
2021/09/14 01:45:19;;;;;;;2.83;1.20;;;;;;;;;;5014441;28;20036;-35
2021/09/14 01:47:45;;;;;;;3.00;1.65;;;;;;;;;;5012490;28;20037;-35
2021/09/14 01:50:11;;;;;;;3.63;1.85;;;;;;;;;;5014012;28;20076;-35
2021/09/14 01:52:36;;;;;;;4.93;1.45;;;;;;;;;;5013416;28;20030;-35
2021/09/14 01:55:05;;;;;;;1.55;0.90;;;;;;;;;;5013268;28;20025;-35
2021/09/14 01:57:34;;;;;;;3.38;1.77;;;;;;;;;;5012654;28;20867;-35
2021/09/14 02:00:01;;;;;;;2.00;1.00;;;;;;;;;;5016947;28;20021;-35
2021/09/14 02:42:56;;;;;;;1.33;0.80;;;;;;;;;;5015425;28;20083;-35
2021/09/14 02:58:44;;;;;;;1.27;1.08;;;;;;;;;;5015267;28;20022;-35
2021/09/14 03:01:11;;;;;;;1.85;0.90;;;;;;;;;;5015043;28;20109;-35
2021/09/14 03:03:38;;;;;;;1.92;0.93;;;;;;;;;;5015194;28;20029;-35
2021/09/14 03:06:03;;;;;;;3.45;0.98;;;;;;;;;;5014723;28;20061;-35
2021/09/14 03:08:28;;;;;;;3.03;1.85;;;;;;;;;;5016584;28;20025;-35
2021/09/14 03:10:54;;;;;;;2.75;1.48;;;;;;;;;;5014723;28;20080;-35
2021/09/14 03:13:19;;;;;;;1.35;1.10;;;;;;;;;;5020290;28;20417;-35
2021/09/14 03:15:45;;;;;;;6.97;1.45;;;;;;;;;;5013470;28;20075;-35
2021/09/14 03:18:10;;;;;;;4.25;0.98;;;;;;;;;;5018833;28;20013;-35
2021/09/14 03:20:35;;;;;;;1.35;0.65;;;;;;;;;;5015251;28;20080;-35
2021/09/14 03:23:01;;;;;;;3.65;1.35;;;;;;;;;;5012773;28;20473;-35
2021/09/14 03:25:26;;;;;;;1.10;0.60;;;;;;;;;;5014261;28;20374;-35
2021/09/14 03:27:51;;;;;;;5.25;1.35;;;;;;;;;;5016167;28;20460;-36
2021/09/14 03:30:17;;;;;;;3.65;1.10;;;;;;;;;;5013511;28;20209;-35
2021/09/14 03:32:42;;;;;;;1.70;1.00;;;;;;;;;;5011326;28;20101;-36
2021/09/14 03:35:08;;;;;;;2.75;1.52;;;;;;;;;;5018321;28;20064;-36
2021/09/14 03:37:33;;;;;;;2.35;1.45;;;;;;;;;;5015845;28;20047;-36
2021/09/14 03:39:58;;;;;;;7.28;1.52;;;;;;;;;;5017970;28;20569;-35
2021/09/14 03:42:23;;;;;;;13.30;1.17;;;;;;;;;;5016380;28;20727;-35
2021/09/14 03:44:49;;;;;;;2.90;1.30;;;;;;;;;;5018438;28;20139;-35
2021/09/14 03:47:15;;;;;;;3.97;1.67;;;;;;;;;;5017018;28;20021;-36
2021/09/14 03:49:40;;;;;;;1.60;1.05;;;;;;;;;;5015005;28;20034;-35
2021/09/14 03:52:05;;;;;;;2.55;1.20;;;;;;;;;;5015805;28;20075;-36
2021/09/14 03:54:30;;;;;;;3.92;1.52;;;;;;;;;;5017650;28;20076;-36
2021/09/14 03:56:56;;;;;;;2.78;1.27;;;;;;;;;;5013648;28;20018;-36
2021/09/14 03:59:21;;;;;;;2.60;0.90;;;;;;;;;;5013754;28;20026;-37
2021/09/14 04:01:53;;;;;;;2.03;0.98;;;;;;;;;;5010815;28;20033;-37
2021/09/14 04:04:23;;;;;;;1.23;0.55;;;;;;;;;;5017833;28;20045;-36
2021/09/14 04:07:24;;;;;;;1.88;0.90;;;;;;;;;;5017327;28;20075;-36
2021/09/14 04:09:40;;;;;;;2.33;0.85;;;;;;;;;;5014970;28;20029;-36
2021/09/14 04:12:05;;;;;;;1.27;0.95;;;;;;;;;;5015028;28;20474;-36
2021/09/14 04:14:32;;;;;;;2.17;0.98;;;;;;;;;;5019446;28;20017;-37
2021/09/14 04:16:57;;;;;;;1.40;0.70;;;;;;;;;;5014051;28;20041;-37
2021/09/14 04:19:22;;;;;;;1.70;1.15;;;;;;;;;;5013813;28;20025;-36
2021/09/14 04:21:49;;;;;;;8.52;1.35;;;;;;;;;;5011106;28;20489;-36
2021/09/14 04:24:15;;;;;;;2.80;1.45;;;;;;;;;;5014404;28;20072;-36
2021/09/14 04:26:40;;;;;;;4.80;1.67;;;;;;;;;;5021609;28;20049;-37
2021/09/14 04:29:05;;;;;;;2.47;1.13;;;;;;;;;;5017534;28;20742;-36
2021/09/14 04:31:31;;;;;;;2.38;1.33;;;;;;;;;;5018518;28;20497;-37
2021/09/14 04:33:56;;;;;;;1.05;0.70;;;;;;;;;;5015072;28;20537;-36
2021/09/14 04:36:22;;;;;;;1.95;1.17;;;;;;;;;;5016281;28;20130;-36
2021/09/14 04:38:47;;;;;;;2.70;1.98;;;;;;;;;;5014862;28;20026;-37
2021/09/14 04:41:12;;;;;;;2.13;1.20;;;;;;;;;;5004199;28;20030;-37
2021/09/14 04:43:37;;;;;;;5.10;1.35;;;;;;;;;;5008575;28;20129;-36
2021/09/14 04:46:04;;;;;;;2.17;1.35;;;;;;;;;;5014189;28;20029;-36
2021/09/14 04:48:29;;;;;;;1.90;1.20;;;;;;;;;;5016149;28;20041;-36
2021/09/14 04:50:54;;;;;;;3.38;1.20;;;;;;;;;;5017406;28;20022;-36
2021/09/14 04:53:20;;;;;;;2.08;1.35;;;;;;;;;;5015296;28;20468;-36
2021/09/14 04:55:45;;;;;;;6.55;1.52;;;;;;;;;;5015635;28;20514;-37
2021/09/14 04:58:10;;;;;;;1.70;0.98;;;;;;;;;;5016527;28;20026;-36
2021/09/14 05:00:35;;;;;;;1.95;1.00;;;;;;;;;;5014890;28;20108;-36
2021/09/14 05:03:01;;;;;;;2.35;1.48;;;;;;;;;;5015321;28;20056;-36
2021/09/14 05:05:26;;;;;;;2.13;1.40;;;;;;;;;;5012868;28;20053;-36
2021/09/14 05:07:51;;;;;;;2.97;2.00;;;;;;;;;;5014843;28;20037;-37
2021/09/14 05:10:17;;;;;;;2.17;0.88;;;;;;;;;;5012168;28;20021;-36
2021/09/14 05:12:42;;;;;;;5.32;1.50;;;;;;;;;;5014704;28;20505;-37
2021/09/14 05:15:08;;;;;;;6.15;1.50;;;;;;;;;;5014830;28;20457;-37
2021/09/14 05:17:34;;;;;;;1.55;1.08;;;;;;;;;;5008482;28;20054;-36
2021/09/14 05:20:00;;;;;;;3.72;1.08;;;;;;;;;;5015983;28;20087;-36
2021/09/14 05:22:31;;;;;;;3.05;1.02;;;;;;;;;;5015849;28;20029;-36
2021/09/14 05:24:56;;;;;;;2.15;1.13;;;;;;;;;;5008222;28;20068;-37
2021/09/14 05:27:21;;;;;;;1.38;1.10;;;;;;;;;;5014420;28;20057;-36
2021/09/14 05:29:47;;;;;;;1.85;0.85;;;;;;;;;;5016720;28;20916;-36
2021/09/14 05:32:14;;;;;;;5.93;1.42;;;;;;;;;;5011935;28;20501;-36
2021/09/14 05:34:39;;;;;;;1.42;0.90;;;;;;;;;;5014095;28;20025;-36
2021/09/14 05:37:04;;;;;;;2.85;1.75;;;;;;;;;;5009666;28;20029;-36
2021/09/14 05:39:30;;;;;;;3.08;1.60;;;;;;;;;;5011150;28;20030;-36
2021/09/14 05:41:55;;;;;;;4.30;1.50;;;;;;;;;;5011976;28;20598;-36
2021/09/14 05:44:20;;;;;;;5.72;2.33;;;;;;;;;;5011618;28;20552;-36
2021/09/14 05:46:46;;;;;;;2.90;1.40;;;;;;;;;;5013580;28;20033;-36
2021/09/14 05:49:11;;;;;;;8.88;1.55;;;;;;;;;;5015909;28;20014;-36
2021/09/14 05:51:36;;;;;;;2.97;1.33;;;;;;;;;;5015876;28;20030;-37
2021/09/14 05:54:02;;;;;;;2.03;1.35;;;;;;;;;;5017582;28;20022;-36
2021/09/14 05:56:31;;;;;;;2.38;1.33;;;;;;;;;;5015137;28;20021;-36
2021/09/14 05:58:57;;;;;;;2.33;1.48;;;;;;;;;;5022048;28;20022;-37
2021/09/14 06:01:22;;;;;;;3.53;1.90;;;;;;;;;;5019710;28;20095;-36
2021/09/14 06:03:47;;;;;;;3.70;1.30;;;;;;;;;;5019991;28;20104;-36
2021/09/14 06:06:12;;;;;;;3.53;1.58;;;;;;;;;;5016207;28;20064;-37
2021/09/14 06:08:38;;;;;;;3.03;1.20;;;;;;;;;;5017197;28;20056;-37
2021/09/14 06:11:03;;;;;;;4.93;2.00;;;;;;;;;;5011587;28;20033;-36
2021/09/14 06:22:37;;;;;;;8.38;1.75;;;;;;;;;;5018440;28;20055;-36
2021/09/14 06:25:02;;;;;;;3.35;1.52;;;;;;;;;;5013138;28;20149;-36
2021/09/14 06:27:28;;;;;;;2.97;1.20;;;;;;;;;;5009086;28;20125;-37
2021/09/14 06:29:53;;;;;;;7.93;1.38;;;;;;;;;;5015612;28;20712;-37
2021/09/14 06:32:18;;;;;;;1.75;1.30;;;;;;;;;;5017539;28;20040;-37
2021/09/14 06:34:44;;;;;;;3.17;1.50;;;;;;;;;;5011392;28;20060;-37
2021/09/14 06:37:09;;;;;;;14.65;1.58;;;;;;;;;;5014105;28;20151;-37
2021/09/14 06:39:35;;;;;;;3.05;1.20;;;;;;;;;;5018744;28;20021;-38
2021/09/14 06:42:01;;;;;;;4.18;1.05;;;;;;;;;;5018403;28;20353;-37
2021/09/14 06:44:26;;;;;;;3.15;2.05;;;;;;;;;;5015983;28;20498;-37
2021/09/14 06:46:51;;;;;;;12.32;1.85;;;;;;;;;;5015979;28;20021;-48
2021/09/14 06:49:17;;;;;;;3.22;1.65;;;;;;;;;;5011788;28;20021;-52
2021/09/14 06:51:42;;;;;;;2.85;1.77;;;;;;;;;;5015097;28;20041;-49
2021/09/14 06:54:08;;;;;;;7.53;1.58;;;;;;;;;;5022796;28;20022;-49
2021/09/14 06:56:33;;;;;;;8.55;2.58;;;;;;;;;;5018346;28;20026;-52
2021/09/14 06:58:58;;;;;;;2.38;1.58;;;;;;;;;;5018735;28;20112;-53
2021/09/14 07:01:24;;;;;;;3.03;1.08;;;;;;;;;;5015236;28;20551;-52
2021/09/14 07:03:49;;;;;;;1.25;0.80;;;;;;;;;;5018781;28;20036;-51
2021/09/14 07:06:16;;;;;;;3.65;1.73;;;;;;;;;;5016713;28;20022;-48
2021/09/14 07:08:41;;;;;;;2.92;1.85;;;;;;;;;;5015976;28;20471;-53
2021/09/14 07:11:07;;;;;;;6.70;1.48;;;;;;;;;;5014245;28;20034;-51
2021/09/14 07:13:32;;;;;;;10.88;1.77;;;;;;;;;;5018504;28;20038;-50
2021/09/14 07:15:58;;;;;;;7.03;1.42;;;;;;;;;;5013663;28;20029;-48
2021/09/14 07:18:24;;;;;;;12.77;2.78;;;;;;;;;;5018564;28;20848;-52
2021/09/14 07:20:49;;;;;;;3.95;1.58;;;;;;;;;;5017310;28;20033;-51
2021/09/14 07:23:14;;;;;;;8.93;1.88;;;;;;;;;;5017705;28;20048;-53
2021/09/14 07:25:41;;;;;;;2.30;1.17;;;;;;;;;;5019553;28;20041;-51
2021/09/14 07:28:07;;;;;;;8.07;1.10;;;;;;;;;;5014598;28;20056;-51
2021/09/14 07:30:32;;;;;;;3.03;1.95;;;;;;;;;;5014084;28;20029;-51
2021/09/14 07:32:58;;;;;;;6.28;1.40;;;;;;;;;;5021274;28;20028;-52
2021/09/14 07:35:23;;;;;;;2.45;1.65;;;;;;;;;;5019838;28;20579;-47
2021/09/14 07:37:48;;;;;;;1.85;0.98;;;;;;;;;;5020059;28;20072;-48
2021/09/14 07:40:14;;;;;;;2.70;1.38;;;;;;;;;;5015535;28;20091;-46
2021/09/14 07:42:39;;;;;;;4.30;2.15;;;;;;;;;;5019852;28;20021;-52
2021/09/14 07:45:05;;;;;;;2.65;1.10;;;;;;;;;;5013279;28;20026;-46
2021/09/14 07:47:30;;;;;;;2.60;1.33;;;;;;;;;;5015860;28;20540;-50
2021/09/14 07:49:55;;;;;;;3.67;1.60;;;;;;;;;;5017899;28;20159;-50
2021/09/14 07:52:20;;;;;;;7.78;2.15;;;;;;;;;;5019083;28;20021;-51
2021/09/14 07:54:46;;;;;;;7.70;1.30;;;;;;;;;;5015957;28;20108;-53
2021/09/14 07:57:11;;;;;;;1.45;0.95;;;;;;;;;;5016041;28;20457;-51
2021/09/14 07:59:36;;;;;;;2.58;1.48;;;;;;;;;;5015615;28;20076;-49
2021/09/14 08:02:02;;;;;;;1.63;1.10;;;;;;;;;;5016164;28;20049;-51
2021/09/14 08:04:27;;;;;;;3.95;1.10;;;;;;;;;;5019997;28;20042;-48
2021/09/14 08:06:52;;;;;;;5.55;1.15;;;;;;;;;;5016187;28;20017;-51
2021/09/14 08:09:18;;;;;;;3.97;1.85;;;;;;;;;;5015948;28;20029;-46
2021/09/14 08:11:43;;;;;;;10.00;1.13;;;;;;;;;;5008918;28;20524;-50
2021/09/14 08:14:09;;;;;;;2.08;1.15;;;;;;;;;;5019858;28;20026;-51
2021/09/14 08:16:34;;;;;;;2.20;1.13;;;;;;;;;;5014003;28;20018;-49
2021/09/14 08:19:00;;;;;;;1.70;1.13;;;;;;;;;;5018236;28;20079;-46
2021/09/14 08:21:26;;;;;;;1.13;0.85;;;;;;;;;;5019689;28;20022;-48
2021/09/14 08:23:51;;;;;;;1.58;1.10;;;;;;;;;;5016860;28;20037;-47
2021/09/14 08:26:16;;;;;;;3.63;1.20;;;;;;;;;;5014741;28;20067;-50
2021/09/14 08:28:42;;;;;;;2.17;1.35;;;;;;;;;;5017792;28;20030;-46
2021/09/14 08:31:07;;;;;;;5.60;1.55;;;;;;;;;;5012608;28;20026;-50
2021/09/14 08:33:32;;;;;;;4.85;2.05;;;;;;;;;;5010446;28;20022;-47
2021/09/14 08:35:58;;;;;;;2.42;1.42;;;;;;;;;;5022173;28;20077;-49
2021/09/14 08:38:23;;;;;;;6.43;1.48;;;;;;;;;;5021821;28;20693;-48
2021/09/14 08:40:48;;;;;;;1.95;1.27;;;;;;;;;;5018149;28;20036;-53
2021/09/14 08:43:14;;;;;;;3.75;1.50;;;;;;;;;;5017009;28;20021;-52
2021/09/14 08:45:39;;;;;;;2.10;1.48;;;;;;;;;;5018230;28;20382;-52
2021/09/14 08:48:05;;;;;;;3.28;1.58;;;;;;;;;;5016282;28;20033;-52
2021/09/14 08:50:30;;;;;;;1.35;1.10;;;;;;;;;;5020153;28;20037;-52
2021/09/14 08:52:56;;;;;;;3.58;2.10;;;;;;;;;;5018076;28;20014;-50
2021/09/14 08:55:22;;;;;;;11.13;1.88;;;;;;;;;;5012374;28;20087;-52
2021/09/14 08:57:51;;;;;;;2.38;1.60;;;;;;;;;;5012386;28;20189;-51
2021/09/14 09:00:22;;;;;;;6.25;1.92;;;;;;;;;;5012724;28;20033;-51
2021/09/14 09:02:54;;;;;;;2.53;1.42;;;;;;;;;;5017869;28;20144;-52
2021/09/14 09:05:28;;;;;;;3.15;1.58;;;;;;;;;;5020227;28;20064;-47
2021/09/14 09:07:53;;;;;;;2.30;1.77;;;;;;;;;;5018592;28;20099;-50
2021/09/14 09:10:18;;;;;;;2.10;1.50;;;;;;;;;;5017912;28;20057;-49
2021/09/14 09:12:48;;;;;;;10.93;1.85;;;;;;;;;;5015056;28;20056;-48
2021/09/14 09:15:23;;;;;;;4.85;1.90;;;;;;;;;;5014301;28;20030;-47
2021/09/14 09:18:03;;;;;;;2.22;1.55;;;;;;;;;;5011161;28;20032;-50
2021/09/14 09:20:29;;;;;;;8.23;1.58;;;;;;;;;;5010323;28;20036;-48
2021/09/14 09:22:59;;;;;;;2.63;1.75;;;;;;;;;;5017244;28;20026;-52
2021/09/14 09:25:24;;;;;;;5.03;1.40;;;;;;;;;;5018067;28;20086;-49
2021/09/14 09:28:08;;;;;;;7.55;1.77;;;;;;;;;;5018111;28;20116;-51
2021/09/14 09:30:36;;;;;;;2.65;1.17;;;;;;;;;;5020894;28;20059;-48
2021/09/14 09:33:03;;;;;;;2.75;1.92;;;;;;;;;;5017539;28;20588;-50
2021/09/14 09:35:30;;;;;;;3.20;1.63;;;;;;;;;;5018074;28;20143;-48
2021/09/14 09:37:55;;;;;;;3.08;1.73;;;;;;;;;;5011240;28;20014;-51
2021/09/14 09:40:25;;;;;;;11.25;2.42;;;;;;;;;;5022443;28;20074;-53
2021/09/14 09:42:51;;;;;;;5.45;2.35;;;;;;;;;;5016210;28;20034;-49
2021/09/14 09:45:17;;;;;;;12.95;2.03;;;;;;;;;;5015380;28;20165;-46
2021/09/14 09:47:43;;;;;;;1.83;1.15;;;;;;;;;;5013922;28;20014;-47
2021/09/14 09:50:09;;;;;;;8.57;2.33;;;;;;;;;;5014303;28;20060;-48
2021/09/14 09:52:35;;;;;;;3.05;1.50;;;;;;;;;;5016868;28;20025;-50
2021/09/14 09:55:00;;;;;;;6.60;1.63;;;;;;;;;;5014946;28;20393;-50
2021/09/14 09:57:26;;;;;;;4.00;1.83;;;;;;;;;;5018739;28;20020;-49
2021/09/14 09:59:51;;;;;;;2.97;2.15;;;;;;;;;;5016166;28;20018;-47
2021/09/14 10:02:16;;;;;;;6.65;2.35;;;;;;;;;;5016164;28;20068;-51
2021/09/14 10:04:44;;;;;;;4.90;1.37;;;;;;;;;;5019823;28;20053;-48
2021/09/14 10:07:10;;;;;;;3.00;1.48;;;;;;;;;;5016743;28;20267;-47
2021/09/14 10:09:36;;;;;;;2.90;2.15;;;;;;;;;;5018777;28;20028;-53
2021/09/14 10:12:01;;;;;;;6.45;2.00;;;;;;;;;;5016798;28;20022;-50
2021/09/14 10:14:26;;;;;;;5.78;2.03;;;;;;;;;;5015291;28;20021;-51
2021/09/14 10:17:03;;;;;;;7.50;1.92;;;;;;;;;;5020117;28;20105;-53
2021/09/14 10:19:29;;;;;;;2.33;1.50;;;;;;;;;;5017814;28;20101;-48
2021/09/14 10:22:08;;;;;;;5.00;2.53;;;;;;;;;;5018575;28;20033;-51
2021/09/14 10:24:34;;;;;;;32.67;4.03;;;;;;;;;;5014668;28;20029;-47
2021/09/14 10:27:05;;;;;;;1.88;1.05;;;;;;;;;;5010453;28;20022;-48
2021/09/14 10:29:31;;;;;;;5.65;2.10;;;;;;;;;;5009469;28;20105;-48
2021/09/14 10:32:00;;;;;;;6.95;2.22;;;;;;;;;;5019439;28;20443;-52
2021/09/14 10:34:25;;;;;;;8.50;2.20;;;;;;;;;;5009867;28;20014;-51
2021/09/14 10:37:09;;;;;;;9.85;2.67;;;;;;;;;;5012695;28;20028;-50
2021/09/14 10:39:35;;;;;;;6.95;2.33;;;;;;;;;;5017708;28;20018;-46
2021/09/14 10:42:11;;;;;;;13.23;2.63;;;;;;;;;;5022624;28;20028;-52
2021/09/14 10:44:36;;;;;;;2.92;1.75;;;;;;;;;;5020988;28;20025;-47
2021/09/14 10:47:21;;;;;;;13.70;3.00;;;;;;;;;;5015071;28;20029;-50
2021/09/14 10:49:46;;;;;;;11.13;2.85;;;;;;;;;;5022785;28;20053;-47
2021/09/14 10:52:12;;;;;;;14.35;2.22;;;;;;;;;;5018718;28;20060;-51
2021/09/14 10:54:48;;;;;;;13.98;4.20;;;;;;;;;;5018611;28;20021;-48
2021/09/14 10:57:14;;;;;;;6.00;2.17;;;;;;;;;;5019397;28;20464;-48
2021/09/14 10:59:46;;;;;;;4.63;3.17;;;;;;;;;;5015699;28;20500;-51
2021/09/14 11:02:12;;;;;;;6.22;2.10;;;;;;;;;;5013222;28;20540;-50
2021/09/14 11:04:40;;;;;;;7.40;2.47;;;;;;;;;;5011527;28;20054;-48
2021/09/14 11:07:12;;;;;;;3.80;1.73;;;;;;;;;;5016720;28;20014;-52
2021/09/14 11:09:38;;;;;;;3.45;1.85;;;;;;;;;;5023297;28;20633;-49
2021/09/14 11:12:03;;;;;;;4.22;2.10;;;;;;;;;;5020824;28;20022;-50
2021/09/14 11:14:33;;;;;;;3.80;1.92;;;;;;;;;;5021664;28;20026;-48
2021/09/14 11:16:58;;;;;;;9.32;2.03;;;;;;;;;;5019833;28;20174;-49
2021/09/14 11:19:24;;;;;;;13.90;2.17;;;;;;;;;;5014282;28;20474;-48
2021/09/14 11:21:50;;;;;;;4.93;2.10;;;;;;;;;;5021054;28;20033;-50
2021/09/14 11:27:30;;;;;;;15.27;2.35;;;;;;;;;;5014221;28;20098;-47
2021/09/14 11:29:56;;;;;;;2.63;2.08;;;;;;;;;;5018426;28;20473;-50
2021/09/14 11:32:22;;;;;;;3.28;2.25;;;;;;;;;;5019856;28;20112;-47
2021/09/14 11:34:49;;;;;;;14.35;3.58;;;;;;;;;;5015736;28;20136;-48
2021/09/14 11:37:24;;;;;;;2.67;1.50;;;;;;;;;;5020478;28;20032;-49
2021/09/14 11:39:49;;;;;;;5.28;2.30;;;;;;;;;;5019002;28;20128;-49
2021/09/14 11:42:14;;;;;;;4.68;2.17;;;;;;;;;;5017287;28;20103;-48
2021/09/14 11:44:42;;;;;;;7.22;2.22;;;;;;;;;;5018447;28;20017;-48
2021/09/14 11:47:08;;;;;;;6.57;2.05;;;;;;;;;;5016309;28;20021;-48
2021/09/14 11:49:33;;;;;;;4.45;2.28;;;;;;;;;;5020402;28;20022;-50
2021/09/14 11:51:59;;;;;;;4.18;2.00;;;;;;;;;;5022883;28;20022;-50
2021/09/14 11:54:26;;;;;;;7.68;3.42;;;;;;;;;;5018180;28;20048;-52
2021/09/14 11:56:56;;;;;;;4.07;3.67;;;;;;;;;;5024087;28;20095;-51
2021/09/14 11:59:21;;;;;;;12.07;3.80;;;;;;;;;;5021585;28;20029;-48
2021/09/14 12:01:47;;;;;;;3.13;2.15;;;;;;;;;;5018315;28;20029;-51
2021/09/14 12:04:15;;;;;;;9.63;3.17;;;;;;;;;;5018675;28;20517;-49
2021/09/14 12:06:41;;;;;;;3.47;2.63;;;;;;;;;;5016145;28;20072;-52
2021/09/14 12:09:09;;;;;;;6.80;1.95;;;;;;;;;;5011484;28;20056;-48
2021/09/14 12:11:38;;;;;;;3.50;2.22;;;;;;;;;;5012891;28;20048;-50
2021/09/14 12:14:11;;;;;;;2.75;2.30;;;;;;;;;;5018467;28;20017;-47
2021/09/14 12:16:40;;;;;;;4.57;3.38;;;;;;;;;;5021407;28;20429;-46
2021/09/14 12:19:07;;;;;;;3.58;2.53;;;;;;;;;;5013202;28;20104;-47
2021/09/14 12:21:32;;;;;;;13.05;2.97;;;;;;;;;;5015642;28;20034;-47
2021/09/14 12:23:58;;;;;;;4.13;2.55;;;;;;;;;;5015966;28;20026;-47
2021/09/14 12:26:25;;;;;;;5.38;2.40;;;;;;;;;;5017407;28;20022;-47
2021/09/14 12:28:54;;;;;;;3.30;2.28;;;;;;;;;;5019444;28;20057;-51
2021/09/14 12:31:20;;;;;;;12.50;3.20;;;;;;;;;;5015598;28;20072;-48
2021/09/14 12:33:45;;;;;;;5.10;2.80;;;;;;;;;;5010185;28;20026;-48
2021/09/14 12:36:11;;;;;;;18.25;2.50;;;;;;;;;;5018101;28;20029;-49
2021/09/14 12:38:37;;;;;;;8.68;3.30;;;;;;;;;;5016371;28;20100;-51
2021/09/14 12:41:02;;;;;;;6.65;2.60;;;;;;;;;;5015704;28;20025;-48
2021/09/14 12:43:28;;;;;;;6.35;3.70;;;;;;;;;;5016602;28;20123;-50
2021/09/14 12:45:53;;;;;;;3.75;2.70;;;;;;;;;;5020962;28;20018;-46
2021/09/14 12:48:18;;;;;;;5.88;2.13;;;;;;;;;;5018161;28;20029;-46
2021/09/14 12:50:44;;;;;;;17.35;3.10;;;;;;;;;;5013356;28;20414;-50
2021/09/14 12:53:09;;;;;;;10.55;2.85;;;;;;;;;;5013712;28;20100;-47
2021/09/14 12:55:35;;;;;;;11.85;2.28;;;;;;;;;;5013130;28;20890;-52
2021/09/14 12:58:02;;;;;;;5.90;3.25;;;;;;;;;;5016632;28;20035;-52
2021/09/14 13:00:27;;;;;;;5.97;4.40;;;;;;;;;;5011749;28;20177;-48
2021/09/14 13:02:52;;;;;;;4.00;3.15;;;;;;;;;;5015646;28;20497;-47
2021/09/14 13:05:18;;;;;;;9.88;3.25;;;;;;;;;;5013764;28;20132;-48
2021/09/14 13:07:43;;;;;;;6.70;3.17;;;;;;;;;;5014914;28;20485;-51
2021/09/14 13:10:11;;;;;;;3.40;2.63;;;;;;;;;;5011208;28;20026;-47
2021/09/14 13:12:37;;;;;;;8.80;3.35;;;;;;;;;;5012671;28;20025;-51
2021/09/14 13:17:46;;;;;;;2.78;1.92;;;;;;;;;;5012298;28;20493;-52
2021/09/14 13:20:12;;;;;;;3.33;1.80;;;;;;;;;;5013565;28;20026;-49
2021/09/14 13:22:37;;;;;;;5.85;3.13;;;;;;;;;;5011063;28;20111;-52
2021/09/14 13:25:03;;;;;;;2.90;2.30;;;;;;;;;;5020436;28;20025;-50
2021/09/14 13:27:28;;;;;;;9.65;2.67;;;;;;;;;;5011567;28;20018;-49
2021/09/14 13:29:54;;;;;;;5.90;2.83;;;;;;;;;;5016947;28;20120;-51
2021/09/14 13:32:19;;;;;;;8.40;2.80;;;;;;;;;;5016319;28;20013;-49
2021/09/14 13:34:45;;;;;;;8.50;2.42;;;;;;;;;;5015971;28;20033;-51
2021/09/14 13:37:10;;;;;;;11.20;3.80;;;;;;;;;;5020529;28;20811;-53
2021/09/14 13:39:35;;;;;;;8.65;2.65;;;;;;;;;;5013923;28;20034;-53
2021/09/14 13:42:01;;;;;;;7.70;2.90;;;;;;;;;;5017531;28;20062;-51
2021/09/14 13:46:56;;;;;;;3.40;2.65;;;;;;;;;;5015663;28;20479;-47
2021/09/14 13:49:21;;;;;;;10.52;2.92;;;;;;;;;;5016331;28;20034;-49
2021/09/14 13:51:47;;;;;;;3.95;2.63;;;;;;;;;;5017063;28;20022;-46
2021/09/14 13:54:12;;;;;;;2.20;1.88;;;;;;;;;;5011091;28;20025;-47
2021/09/14 13:56:38;;;;;;;2.28;1.83;;;;;;;;;;5015199;28;20139;-49
2021/09/14 13:59:03;;;;;;;4.00;2.05;;;;;;;;;;5010531;28;20064;-46
2021/09/14 14:01:29;;;;;;;4.10;2.33;;;;;;;;;;5015759;28;20037;-46
2021/09/14 14:03:55;;;;;;;6.20;2.63;;;;;;;;;;5012713;28;20076;-50
2021/09/14 14:06:21;;;;;;;2.95;2.03;;;;;;;;;;5014823;28;20033;-47
2021/09/14 14:08:46;;;;;;;3.83;2.30;;;;;;;;;;5013546;28;20033;-46
2021/09/14 14:11:12;;;;;;;6.30;1.88;;;;;;;;;;5016524;28;20018;-48
2021/09/14 14:13:37;;;;;;;4.00;1.65;;;;;;;;;;5022212;28;20049;-46
2021/09/14 14:16:09;;;;;;;11.63;3.50;;;;;;;;;;5016832;28;20029;-47
2021/09/14 14:18:34;;;;;;;3.65;1.58;;;;;;;;;;5008071;28;20029;-49
2021/09/14 14:21:00;;;;;;;2.67;1.35;;;;;;;;;;5019912;28;20107;-49
2021/09/14 14:23:25;;;;;;;12.27;3.40;;;;;;;;;;5015159;28;20516;-48
2021/09/14 14:25:51;;;;;;;2.97;2.67;;;;;;;;;;5015348;28;20029;-47
2021/09/14 14:28:16;;;;;;;9.35;3.15;;;;;;;;;;5014763;28;20088;-46
2021/09/14 14:30:43;;;;;;;5.15;2.00;;;;;;;;;;5016682;28;20042;-49
2021/09/14 14:33:08;;;;;;;3.53;2.58;;;;;;;;;;5017181;28;20041;-45
2021/09/14 14:35:34;;;;;;;2.47;1.67;;;;;;;;;;5013935;28;20112;-45
2021/09/14 14:37:59;;;;;;;12.00;2.63;;;;;;;;;;5014361;28;20069;-47
2021/09/14 14:40:25;;;;;;;2.13;1.70;;;;;;;;;;5016660;28;20428;-45
2021/09/14 14:42:50;;;;;;;3.55;2.03;;;;;;;;;;5017312;28;20581;-50
2021/09/14 14:45:16;;;;;;;9.93;1.92;;;;;;;;;;5020381;28;20025;-50
2021/09/14 14:47:41;;;;;;;10.95;3.60;;;;;;;;;;5019458;28;20449;-46
2021/09/14 14:50:07;;;;;;;2.25;1.52;;;;;;;;;;5013506;28;20025;-48
2021/09/14 14:52:32;;;;;;;11.73;2.05;;;;;;;;;;5018769;28;20022;-48
2021/09/14 14:54:58;;;;;;;3.50;2.42;;;;;;;;;;5017236;28;20265;-49
2021/09/14 14:57:23;;;;;;;3.88;1.85;;;;;;;;;;5017632;28;20607;-45
2021/09/14 14:59:49;;;;;;;3.65;2.38;;;;;;;;;;5011045;28;20856;-46
2021/09/14 15:02:14;;;;;;;2.35;1.63;;;;;;;;;;5014174;28;20681;-48
2021/09/14 15:04:39;;;;;;;3.90;1.65;;;;;;;;;;5016255;28;20049;-49
2021/09/14 15:07:05;;;;;;;2.65;1.42;;;;;;;;;;5011713;28;20067;-46
2021/09/14 15:09:30;;;;;;;5.03;1.90;;;;;;;;;;5018159;28;20073;-49
2021/09/14 15:11:55;;;;;;;4.40;1.73;;;;;;;;;;5011208;28;20022;-48
2021/09/14 15:14:20;;;;;;;7.50;3.40;;;;;;;;;;5006872;28;20061;-46
2021/09/14 15:16:46;;;;;;;9.35;2.40;;;;;;;;;;5016854;28;20027;-48
2021/09/14 15:19:11;;;;;;;6.32;3.03;;;;;;;;;;5012981;28;20368;-49
2021/09/14 15:21:37;;;;;;;1.75;1.30;;;;;;;;;;5011850;28;20044;-47
2021/09/14 15:24:02;;;;;;;6.80;2.25;;;;;;;;;;5017548;28;20030;-47
2021/09/14 15:26:28;;;;;;;8.57;3.35;;;;;;;;;;5016906;28;20071;-47
2021/09/14 15:28:53;;;;;;;4.93;2.40;;;;;;;;;;5013686;28;20029;-48
2021/09/14 15:31:19;;;;;;;7.47;1.52;;;;;;;;;;5011922;28;20022;-51
2021/09/14 15:33:44;;;;;;;3.85;1.95;;;;;;;;;;5013613;28;20129;-49
2021/09/14 15:36:09;;;;;;;18.38;2.55;;;;;;;;;;5011277;28;20017;-49
2021/09/14 15:38:37;;;;;;;6.43;2.05;;;;;;;;;;5019493;28;20029;-47
2021/09/14 15:41:06;;;;;;;2.40;1.63;;;;;;;;;;5015159;28;20025;-46
2021/09/14 15:43:33;;;;;;;5.47;1.95;;;;;;;;;;5013644;28;20259;-49
2021/09/14 15:45:59;;;;;;;14.43;3.33;;;;;;;;;;5015083;28;20529;-49